sensor_id;sensor_type;location;lat;lon;timestamp;pressure;altitude;pressure_sealevel;temperature;humidity
26657;BME280;14279;50.010;8.260;2023-02-14T00:01:20;102438.44;;;6.64;73.72
26657;BME280;14279;50.010;8.260;2023-02-14T00:03:45;102433.22;;;6.56;73.63
26657;BME280;14279;50.010;8.260;2023-02-14T00:06:12;102434.09;;;6.55;73.56
26657;BME280;14279;50.010;8.260;2023-02-14T00:08:38;102437.50;;;6.51;73.42
26657;BME280;14279;50.010;8.260;2023-02-14T00:11:05;102438.41;;;6.54;73.66
26657;BME280;14279;50.010;8.260;2023-02-14T00:13:32;102434.94;;;6.51;74.03
26657;BME280;14279;50.010;8.260;2023-02-14T00:15:58;102436.63;;;6.44;74.60
26657;BME280;14279;50.010;8.260;2023-02-14T00:18:23;102436.66;;;6.45;74.40
26657;BME280;14279;50.010;8.260;2023-02-14T00:21:09;102432.31;;;6.41;74.07
26657;BME280;14279;50.010;8.260;2023-02-14T00:23:34;102440.09;;;6.46;74.20
26657;BME280;14279;50.010;8.260;2023-02-14T00:25:59;102434.94;;;6.44;73.75
26657;BME280;14279;50.010;8.260;2023-02-14T00:28:24;102431.47;;;6.42;73.98
26657;BME280;14279;50.010;8.260;2023-02-14T00:30:50;102440.94;;;6.45;74.14
26657;BME280;14279;50.010;8.260;2023-02-14T00:33:15;102440.06;;;6.37;73.70
26657;BME280;14279;50.010;8.260;2023-02-14T00:35:40;102434.00;;;6.36;74.66
26657;BME280;14279;50.010;8.260;2023-02-14T00:38:05;102439.16;;;6.33;74.21
26657;BME280;14279;50.010;8.260;2023-02-14T00:40:31;102433.13;;;6.25;74.26
26657;BME280;14279;50.010;8.260;2023-02-14T00:42:56;102436.56;;;6.24;74.28
26657;BME280;14279;50.010;8.260;2023-02-14T00:45:21;102443.41;;;6.20;73.67
26657;BME280;14279;50.010;8.260;2023-02-14T00:47:46;102441.63;;;6.11;73.71
26657;BME280;14279;50.010;8.260;2023-02-14T00:50:12;102446.81;;;6.10;73.71
26657;BME280;14279;50.010;8.260;2023-02-14T00:52:37;102447.66;;;6.07;73.97
26657;BME280;14279;50.010;8.260;2023-02-14T00:55:02;102446.78;;;6.08;74.12
26657;BME280;14279;50.010;8.260;2023-02-14T00:57:27;102447.66;;;6.06;74.45
26657;BME280;14279;50.010;8.260;2023-02-14T00:59:56;102444.09;;;5.97;74.37
26657;BME280;14279;50.010;8.260;2023-02-14T01:02:21;102444.94;;;5.93;74.52
26657;BME280;14279;50.010;8.260;2023-02-14T01:04:46;102438.03;;;5.91;74.95
26657;BME280;14279;50.010;8.260;2023-02-14T01:07:11;102440.53;;;5.81;74.63
26657;BME280;14279;50.010;8.260;2023-02-14T01:09:37;102435.34;;;5.78;75.21
26657;BME280;14279;50.010;8.260;2023-02-14T01:12:02;102434.50;;;5.76;75.22
26657;BME280;14279;50.010;8.260;2023-02-14T01:14:27;102439.69;;;5.82;75.00
26657;BME280;14279;50.010;8.260;2023-02-14T01:16:52;102426.75;;;5.79;75.06
26657;BME280;14279;50.010;8.260;2023-02-14T01:19:18;102434.53;;;5.81;74.58
26657;BME280;14279;50.010;8.260;2023-02-14T01:21:43;102437.94;;;5.75;74.52
26657;BME280;14279;50.010;8.260;2023-02-14T01:24:09;102443.09;;;5.75;74.68
26657;BME280;14279;50.010;8.260;2023-02-14T01:26:36;102437.00;;;5.65;74.13
26657;BME280;14279;50.010;8.260;2023-02-14T01:29:03;102434.38;;;5.59;74.58
26657;BME280;14279;50.010;8.260;2023-02-14T01:31:31;102436.78;;;5.39;74.67
26657;BME280;14279;50.010;8.260;2023-02-14T01:33:57;102436.69;;;5.26;75.23
26657;BME280;14279;50.010;8.260;2023-02-14T01:36:32;102433.03;;;5.09;75.20
26657;BME280;14279;50.010;8.260;2023-02-14T01:39:00;102441.69;;;5.13;75.55
26657;BME280;14279;50.010;8.260;2023-02-14T01:41:28;102439.09;;;5.09;75.26
26657;BME280;14279;50.010;8.260;2023-02-14T01:44:00;102440.78;;;5.09;75.45
26657;BME280;14279;50.010;8.260;2023-02-14T01:46:29;102445.00;;;4.97;75.59
26657;BME280;14279;50.010;8.260;2023-02-14T01:48:59;102443.31;;;5.04;75.68
26657;BME280;14279;50.010;8.260;2023-02-14T01:51:25;102435.59;;;5.04;75.41
26657;BME280;14279;50.010;8.260;2023-02-14T01:53:51;102438.09;;;4.96;75.28
26657;BME280;14279;50.010;8.260;2023-02-14T01:56:22;102439.81;;;4.99;75.72
26657;BME280;14279;50.010;8.260;2023-02-14T01:58:51;102437.38;;;5.13;75.15
26657;BME280;14279;50.010;8.260;2023-02-14T02:01:18;102442.63;;;5.19;75.16
26657;BME280;14279;50.010;8.260;2023-02-14T02:03:50;102442.66;;;5.22;75.00
26657;BME280;14279;50.010;8.260;2023-02-14T02:06:34;102446.09;;;5.23;74.14
26657;BME280;14279;50.010;8.260;2023-02-14T02:11:26;102435.63;;;5.09;74.73
26657;BME280;14279;50.010;8.260;2023-02-14T02:13:51;102441.66;;;5.09;75.56
26657;BME280;14279;50.010;8.260;2023-02-14T02:16:43;102440.72;;;5.01;75.06
26657;BME280;14279;50.010;8.260;2023-02-14T02:25:33;102431.19;;;4.95;75.72
26657;BME280;14279;50.010;8.260;2023-02-14T02:28:28;102432.03;;;4.93;75.79
26657;BME280;14279;50.010;8.260;2023-02-14T02:42:09;102420.09;;;5.06;74.87
26657;BME280;14279;50.010;8.260;2023-02-14T02:44:43;102418.44;;;5.09;74.39
26657;BME280;14279;50.010;8.260;2023-02-14T02:47:36;102422.56;;;4.95;75.04
26657;BME280;14279;50.010;8.260;2023-02-14T02:50:17;102425.16;;;4.95;75.10
26657;BME280;14279;50.010;8.260;2023-02-14T02:53:23;102426.03;;;4.97;75.18
26657;BME280;14279;50.010;8.260;2023-02-14T02:56:21;102423.41;;;4.91;76.02
26657;BME280;14279;50.010;8.260;2023-02-14T02:59:12;102417.34;;;4.87;75.71
26657;BME280;14279;50.010;8.260;2023-02-14T03:01:44;102419.91;;;4.87;75.74
26657;BME280;14279;50.010;8.260;2023-02-14T03:04:12;102418.09;;;4.78;75.90
26657;BME280;14279;50.010;8.260;2023-02-14T03:06:58;102418.91;;;4.73;75.70
26657;BME280;14279;50.010;8.260;2023-02-14T03:12:13;102420.56;;;4.66;75.32
26657;BME280;14279;50.010;8.260;2023-02-14T03:14:49;102418.75;;;4.60;75.43
26657;BME280;14279;50.010;8.260;2023-02-14T03:17:24;102415.41;;;4.66;75.68
26657;BME280;14279;50.010;8.260;2023-02-14T03:20:23;102419.72;;;4.67;75.62
26657;BME280;14279;50.010;8.260;2023-02-14T03:23:06;102417.13;;;4.67;75.63
26657;BME280;14279;50.010;8.260;2023-02-14T03:26:08;102420.56;;;4.68;75.93
26657;BME280;14279;50.010;8.260;2023-02-14T03:31:27;102416.25;;;4.66;76.05
26657;BME280;14279;50.010;8.260;2023-02-14T03:34:04;102414.56;;;4.70;76.00
26657;BME280;14279;50.010;8.260;2023-02-14T03:37:01;102414.50;;;4.64;76.83
26657;BME280;14279;50.010;8.260;2023-02-14T03:39:42;102413.53;;;4.54;78.12
26657;BME280;14279;50.010;8.260;2023-02-14T03:42:20;102418.75;;;4.59;78.80
26657;BME280;14279;50.010;8.260;2023-02-14T03:44:49;102424.72;;;4.55;79.39
26657;BME280;14279;50.010;8.260;2023-02-14T03:47:19;102412.63;;;4.50;79.85
26657;BME280;14279;50.010;8.260;2023-02-14T03:49:50;102420.38;;;4.52;79.91
26657;BME280;14279;50.010;8.260;2023-02-14T03:52:18;102422.97;;;4.54;79.44
26657;BME280;14279;50.010;8.260;2023-02-14T03:54:45;102425.50;;;4.49;79.75
26657;BME280;14279;50.010;8.260;2023-02-14T03:57:18;102427.16;;;4.42;79.70
26657;BME280;14279;50.010;8.260;2023-02-14T03:59:46;102430.59;;;4.43;79.64
26657;BME280;14279;50.010;8.260;2023-02-14T04:02:26;102431.31;;;4.32;80.18
26657;BME280;14279;50.010;8.260;2023-02-14T04:04:56;102432.41;;;4.51;79.04
26657;BME280;14279;50.010;8.260;2023-02-14T04:07:23;102436.63;;;4.45;78.33
26657;BME280;14279;50.010;8.260;2023-02-14T04:09:49;102437.47;;;4.44;78.49
26657;BME280;14279;50.010;8.260;2023-02-14T04:12:15;102438.34;;;4.44;78.18
26657;BME280;14279;50.010;8.260;2023-02-14T04:14:41;102441.78;;;4.43;78.08
26657;BME280;14279;50.010;8.260;2023-02-14T04:17:06;102440.09;;;4.45;78.22
26657;BME280;14279;50.010;8.260;2023-02-14T04:19:50;102434.75;;;4.34;78.74
26657;BME280;14279;50.010;8.260;2023-02-14T04:22:15;102437.38;;;4.36;78.29
26657;BME280;14279;50.010;8.260;2023-02-14T04:24:40;102440.84;;;4.40;78.08
26657;BME280;14279;50.010;8.260;2023-02-14T04:27:06;102436.50;;;4.34;78.50
26657;BME280;14279;50.010;8.260;2023-02-14T04:29:47;102443.38;;;4.36;78.27
26657;BME280;14279;50.010;8.260;2023-02-14T04:32:15;102437.47;;;4.44;77.83
26657;BME280;14279;50.010;8.260;2023-02-14T04:34:41;102439.91;;;4.31;77.67
26657;BME280;14279;50.010;8.260;2023-02-14T04:37:07;102439.03;;;4.31;77.87
26657;BME280;14279;50.010;8.260;2023-02-14T04:39:33;102449.28;;;4.28;77.53
26657;BME280;14279;50.010;8.260;2023-02-14T04:41:58;102441.50;;;4.25;77.69
26657;BME280;14279;50.010;8.260;2023-02-14T04:44:24;102449.16;;;4.17;78.33
26657;BME280;14279;50.010;8.260;2023-02-14T04:46:49;102450.88;;;4.18;78.26
26657;BME280;14279;50.010;8.260;2023-02-14T04:49:14;102450.81;;;4.15;78.06
26657;BME280;14279;50.010;8.260;2023-02-14T04:51:40;102445.75;;;4.19;78.07
26657;BME280;14279;50.010;8.260;2023-02-14T04:54:05;102445.78;;;4.21;78.60
26657;BME280;14279;50.010;8.260;2023-02-14T04:56:31;102447.19;;;4.00;78.91
26657;BME280;14279;50.010;8.260;2023-02-14T04:58:56;102445.31;;;3.88;80.54
26657;BME280;14279;50.010;8.260;2023-02-14T05:01:21;102450.50;;;3.91;80.60
26657;BME280;14279;50.010;8.260;2023-02-14T05:03:46;102448.25;;;4.13;80.08
26657;BME280;14279;50.010;8.260;2023-02-14T05:06:12;102442.75;;;3.90;80.24
26657;BME280;14279;50.010;8.260;2023-02-14T05:08:37;102457.28;;;3.85;80.93
26657;BME280;14279;50.010;8.260;2023-02-14T05:11:02;102449.56;;;3.86;80.92
26657;BME280;14279;50.010;8.260;2023-02-14T05:13:27;102447.78;;;3.81;80.75
26657;BME280;14279;50.010;8.260;2023-02-14T05:15:53;102444.47;;;3.89;80.88
26657;BME280;14279;50.010;8.260;2023-02-14T05:18:19;102448.81;;;3.94;81.06
26657;BME280;14279;50.010;8.260;2023-02-14T05:20:44;102447.84;;;3.87;80.81
26657;BME280;14279;50.010;8.260;2023-02-14T05:23:12;102447.94;;;3.93;80.58
26657;BME280;14279;50.010;8.260;2023-02-14T05:25:41;102444.25;;;3.77;81.31
26657;BME280;14279;50.010;8.260;2023-02-14T05:28:07;102450.19;;;3.71;81.26
26657;BME280;14279;50.010;8.260;2023-02-14T05:30:33;102443.47;;;3.80;81.98
26657;BME280;14279;50.010;8.260;2023-02-14T05:32:59;102440.03;;;3.81;80.99
26657;BME280;14279;50.010;8.260;2023-02-14T05:35:24;102435.44;;;3.63;81.23
26657;BME280;14279;50.010;8.260;2023-02-14T05:37:50;102438.66;;;3.49;81.88
26657;BME280;14279;50.010;8.260;2023-02-14T05:40:15;102441.97;;;3.42;82.11
26657;BME280;14279;50.010;8.260;2023-02-14T05:42:41;102441.44;;;3.11;82.93
26657;BME280;14279;50.010;8.260;2023-02-14T05:45:07;102438.72;;;3.03;83.34
26657;BME280;14279;50.010;8.260;2023-02-14T05:47:33;102441.25;;;3.01;83.23
26657;BME280;14279;50.010;8.260;2023-02-14T05:49:58;102433.66;;;3.08;82.76
26657;BME280;14279;50.010;8.260;2023-02-14T05:52:24;102435.97;;;2.94;82.77
26657;BME280;14279;50.010;8.260;2023-02-14T05:54:49;102437.69;;;2.93;82.60
26657;BME280;14279;50.010;8.260;2023-02-14T05:57:15;102438.59;;;2.97;82.35
26657;BME280;14279;50.010;8.260;2023-02-14T05:59:40;102440.34;;;2.98;82.42
26657;BME280;14279;50.010;8.260;2023-02-14T06:02:06;102447.78;;;2.82;82.42
26657;BME280;14279;50.010;8.260;2023-02-14T06:04:31;102439.56;;;3.02;81.72
26657;BME280;14279;50.010;8.260;2023-02-14T06:06:56;102435.31;;;3.04;80.86
26657;BME280;14279;50.010;8.260;2023-02-14T06:09:21;102435.38;;;3.09;81.98
26657;BME280;14279;50.010;8.260;2023-02-14T06:11:47;102439.69;;;3.08;81.49
26657;BME280;14279;50.010;8.260;2023-02-14T06:14:12;102438.13;;;3.18;81.07
26657;BME280;14279;50.010;8.260;2023-02-14T06:16:37;102447.06;;;2.91;82.16
26657;BME280;14279;50.010;8.260;2023-02-14T06:19:03;102443.34;;;2.75;81.98
26657;BME280;14279;50.010;8.260;2023-02-14T06:21:28;102448.66;;;2.84;82.82
26657;BME280;14279;50.010;8.260;2023-02-14T06:23:53;102447.34;;;3.05;81.78
26657;BME280;14279;50.010;8.260;2023-02-14T06:26:18;102455.19;;;3.11;81.40
26657;BME280;14279;50.010;8.260;2023-02-14T06:28:44;102455.38;;;3.22;80.42
26657;BME280;14279;50.010;8.260;2023-02-14T06:31:15;102467.09;;;3.06;81.17
26657;BME280;14279;50.010;8.260;2023-02-14T06:33:41;102466.31;;;3.10;80.75
26657;BME280;14279;50.010;8.260;2023-02-14T06:36:07;102464.78;;;3.22;80.76
26657;BME280;14279;50.010;8.260;2023-02-14T06:38:32;102467.16;;;3.11;80.52
26657;BME280;14279;50.010;8.260;2023-02-14T06:41:05;102469.56;;;3.01;80.82
26657;BME280;14279;50.010;8.260;2023-02-14T06:43:31;102466.47;;;3.20;81.23
26657;BME280;14279;50.010;8.260;2023-02-14T06:45:56;102468.44;;;3.35;79.99
26657;BME280;14279;50.010;8.260;2023-02-14T06:48:22;102476.09;;;3.30;79.82
26657;BME280;14279;50.010;8.260;2023-02-14T06:50:47;102471.28;;;3.49;79.53
26657;BME280;14279;50.010;8.260;2023-02-14T06:53:12;102473.13;;;3.57;79.26
26657;BME280;14279;50.010;8.260;2023-02-14T06:55:37;102465.28;;;3.48;78.39
26657;BME280;14279;50.010;8.260;2023-02-14T06:58:03;102474.75;;;3.52;78.58
26657;BME280;14279;50.010;8.260;2023-02-14T07:00:28;102473.78;;;3.44;78.88
26657;BME280;14279;50.010;8.260;2023-02-14T07:02:53;102469.75;;;3.60;77.71
26657;BME280;14279;50.010;8.260;2023-02-14T07:05:19;102472.13;;;3.49;77.87
26657;BME280;14279;50.010;8.260;2023-02-14T07:07:44;102474.91;;;3.60;78.31
26657;BME280;14279;50.010;8.260;2023-02-14T07:10:10;102479.13;;;3.55;77.61
26657;BME280;14279;50.010;8.260;2023-02-14T07:12:36;102474.09;;;3.64;77.48
26657;BME280;14279;50.010;8.260;2023-02-14T07:15:04;102480.44;;;3.83;76.62
26657;BME280;14279;50.010;8.260;2023-02-14T07:17:30;102478.53;;;3.71;76.63
26657;BME280;14279;50.010;8.260;2023-02-14T07:19:55;102475.88;;;3.67;76.98
26657;BME280;14279;50.010;8.260;2023-02-14T07:22:20;102482.66;;;3.61;76.76
26657;BME280;14279;50.010;8.260;2023-02-14T07:24:45;102482.72;;;3.65;77.31
26657;BME280;14279;50.010;8.260;2023-02-14T07:27:11;102487.75;;;3.57;77.65
26657;BME280;14279;50.010;8.260;2023-02-14T07:29:36;102484.50;;;3.70;77.56
26657;BME280;14279;50.010;8.260;2023-02-14T07:32:01;102488.03;;;3.75;76.92
26657;BME280;14279;50.010;8.260;2023-02-14T07:34:26;102482.75;;;3.68;76.59
26657;BME280;14279;50.010;8.260;2023-02-14T07:36:52;102488.81;;;3.70;76.69
26657;BME280;14279;50.010;8.260;2023-02-14T07:39:17;102492.72;;;3.49;76.66
26657;BME280;14279;50.010;8.260;2023-02-14T07:41:42;102489.13;;;3.38;77.39
26657;BME280;14279;50.010;8.260;2023-02-14T07:44:07;102493.94;;;3.21;77.56
26657;BME280;14279;50.010;8.260;2023-02-14T07:46:33;102490.59;;;3.25;78.64
26657;BME280;14279;50.010;8.260;2023-02-14T07:48:58;102487.25;;;3.29;77.63
26657;BME280;14279;50.010;8.260;2023-02-14T07:51:23;102495.88;;;3.33;77.59
26657;BME280;14279;50.010;8.260;2023-02-14T07:53:48;102496.56;;;3.24;78.21
26657;BME280;14279;50.010;8.260;2023-02-14T07:56:14;102493.03;;;3.17;77.57
26657;BME280;14279;50.010;8.260;2023-02-14T07:58:39;102492.91;;;3.11;78.61
26657;BME280;14279;50.010;8.260;2023-02-14T08:01:07;102496.16;;;3.02;78.90
26657;BME280;14279;50.010;8.260;2023-02-14T08:03:32;102495.53;;;3.12;78.32
26657;BME280;14279;50.010;8.260;2023-02-14T08:05:57;102501.53;;;3.14;78.22
26657;BME280;14279;50.010;8.260;2023-02-14T08:08:28;102497.22;;;3.13;77.79
26657;BME280;14279;50.010;8.260;2023-02-14T08:10:54;102498.81;;;3.05;77.61
26657;BME280;14279;50.010;8.260;2023-02-14T08:13:20;102497.00;;;2.99;78.49
26657;BME280;14279;50.010;8.260;2023-02-14T08:15:45;102489.81;;;3.29;77.39
26657;BME280;14279;50.010;8.260;2023-02-14T08:18:30;102491.41;;;3.22;77.52
26657;BME280;14279;50.010;8.260;2023-02-14T08:20:56;102492.16;;;3.16;77.80
26657;BME280;14279;50.010;8.260;2023-02-14T08:23:21;102491.38;;;3.21;77.47
26657;BME280;14279;50.010;8.260;2023-02-14T08:25:48;102489.81;;;3.29;76.55
26657;BME280;14279;50.010;8.260;2023-02-14T08:28:14;102483.91;;;3.35;77.42
26657;BME280;14279;50.010;8.260;2023-02-14T08:30:40;102483.97;;;3.38;77.50
26657;BME280;14279;50.010;8.260;2023-02-14T08:33:05;102483.13;;;3.40;76.77
26657;BME280;14279;50.010;8.260;2023-02-14T08:35:31;102476.66;;;3.63;76.43
26657;BME280;14279;50.010;8.260;2023-02-14T08:37:56;102480.81;;;3.54;76.20
26657;BME280;14279;50.010;8.260;2023-02-14T08:40:21;102480.66;;;3.45;76.06
26657;BME280;14279;50.010;8.260;2023-02-14T08:42:47;102486.91;;;3.58;76.94
26657;BME280;14279;50.010;8.260;2023-02-14T08:45:13;102484.25;;;3.55;76.67
26657;BME280;14279;50.010;8.260;2023-02-14T08:47:38;102483.44;;;3.56;76.79
26657;BME280;14279;50.010;8.260;2023-02-14T08:50:09;102474.94;;;3.61;76.68
26657;BME280;14279;50.010;8.260;2023-02-14T08:52:35;102487.78;;;3.60;76.85
26657;BME280;14279;50.010;8.260;2023-02-14T08:55:00;102477.56;;;3.65;76.88
26657;BME280;14279;50.010;8.260;2023-02-14T08:57:26;102485.59;;;3.83;76.43
26657;BME280;14279;50.010;8.260;2023-02-14T08:59:52;102487.31;;;3.84;76.49
26657;BME280;14279;50.010;8.260;2023-02-14T09:02:17;102484.78;;;3.87;76.19
26657;BME280;14279;50.010;8.260;2023-02-14T09:04:43;102481.38;;;3.90;76.11
26657;BME280;14279;50.010;8.260;2023-02-14T09:07:10;102490.00;;;3.90;76.16
26657;BME280;14279;50.010;8.260;2023-02-14T09:09:36;102492.47;;;3.86;76.39
26657;BME280;14279;50.010;8.260;2023-02-14T09:12:05;102489.28;;;3.99;75.95
26657;BME280;14279;50.010;8.260;2023-02-14T09:14:42;102486.47;;;3.84;75.73
26657;BME280;14279;50.010;8.260;2023-02-14T09:17:09;102492.78;;;3.51;76.61
26657;BME280;14279;50.010;8.260;2023-02-14T09:19:35;102493.56;;;3.46;77.12
26657;BME280;14279;50.010;8.260;2023-02-14T09:22:02;102485.25;;;3.63;77.04
26657;BME280;14279;50.010;8.260;2023-02-14T09:24:31;102490.72;;;3.33;77.89
26657;BME280;14279;50.010;8.260;2023-02-14T09:26:57;102490.19;;;3.51;77.25
26657;BME280;14279;50.010;8.260;2023-02-14T09:29:23;102480.69;;;3.46;77.30
26657;BME280;14279;50.010;8.260;2023-02-14T09:31:52;102484.44;;;3.66;77.00
26657;BME280;14279;50.010;8.260;2023-02-14T09:34:17;102489.44;;;3.56;78.47
26657;BME280;14279;50.010;8.260;2023-02-14T09:36:42;102479.47;;;3.76;78.18
26657;BME280;14279;50.010;8.260;2023-02-14T09:39:26;102486.19;;;3.68;77.73
26657;BME280;14279;50.010;8.260;2023-02-14T09:42:10;102486.91;;;3.59;78.69
26657;BME280;14279;50.010;8.260;2023-02-14T09:44:42;102476.72;;;3.67;78.50
26657;BME280;14279;50.010;8.260;2023-02-14T09:49:47;102476.84;;;3.72;77.97
26657;BME280;14279;50.010;8.260;2023-02-14T09:52:16;102473.53;;;3.82;77.47
26657;BME280;14279;50.010;8.260;2023-02-14T09:54:47;102476.06;;;3.78;77.93
26657;BME280;14279;50.010;8.260;2023-02-14T09:57:34;102474.38;;;3.30;78.39
26657;BME280;14279;50.010;8.260;2023-02-14T10:00:22;102474.38;;;3.29;79.30
26657;BME280;14279;50.010;8.260;2023-02-14T10:02:57;102481.59;;;3.50;79.29
26657;BME280;14279;50.010;8.260;2023-02-14T10:05:28;102482.06;;;3.76;78.07
26657;BME280;14279;50.010;8.260;2023-02-14T10:10:52;102476.84;;;3.72;77.94
26657;BME280;14279;50.010;8.260;2023-02-14T10:16:08;102480.41;;;3.82;78.00
26657;BME280;14279;50.010;8.260;2023-02-14T10:18:42;102473.34;;;3.70;77.67
26657;BME280;14279;50.010;8.260;2023-02-14T10:21:15;102472.53;;;3.71;77.99
26657;BME280;14279;50.010;8.260;2023-02-14T10:23:49;102479.31;;;3.67;77.83
26657;BME280;14279;50.010;8.260;2023-02-14T10:26:20;102483.88;;;3.84;77.85
26657;BME280;14279;50.010;8.260;2023-02-14T10:28:49;102480.41;;;3.82;77.62
26657;BME280;14279;50.010;8.260;2023-02-14T10:31:31;102473.00;;;3.50;77.94
26657;BME280;14279;50.010;8.260;2023-02-14T10:37:02;102463.72;;;3.59;78.30
26657;BME280;14279;50.010;8.260;2023-02-14T10:45:16;102464.06;;;3.80;77.60
26657;BME280;14279;50.010;8.260;2023-02-14T10:48:12;102459.09;;;3.90;78.04
26657;BME280;14279;50.010;8.260;2023-02-14T10:54:15;102456.41;;;3.86;77.12
26657;BME280;14279;50.010;8.260;2023-02-14T10:57:00;102452.25;;;3.94;77.99
26657;BME280;14279;50.010;8.260;2023-02-14T10:59:33;102443.56;;;3.87;77.38
26657;BME280;14279;50.010;8.260;2023-02-14T11:02:02;102439.81;;;3.68;78.22
26657;BME280;14279;50.010;8.260;2023-02-14T11:04:29;102438.94;;;3.65;78.41
26657;BME280;14279;50.010;8.260;2023-02-14T11:06:55;102438.31;;;3.80;78.13
26657;BME280;14279;50.010;8.260;2023-02-14T11:09:20;102429.09;;;3.96;77.25
26657;BME280;14279;50.010;8.260;2023-02-14T11:11:50;102429.31;;;4.11;77.45
26657;BME280;14279;50.010;8.260;2023-02-14T11:16:49;102422.81;;;4.40;76.07
26657;BME280;14279;50.010;8.260;2023-02-14T11:19:34;102414.72;;;4.13;76.50
26657;BME280;14279;50.010;8.260;2023-02-14T11:22:11;102415.66;;;4.18;76.31
26657;BME280;14279;50.010;8.260;2023-02-14T11:25:02;102421.13;;;3.80;77.52
26657;BME280;14279;50.010;8.260;2023-02-14T11:27:28;102420.22;;;3.78;77.84
26657;BME280;14279;50.010;8.260;2023-02-14T11:29:54;102419.47;;;3.84;77.93
26657;BME280;14279;50.010;8.260;2023-02-14T11:32:22;102408.50;;;3.96;77.59
26657;BME280;14279;50.010;8.260;2023-02-14T11:35:02;102407.09;;;4.19;76.79
26657;BME280;14279;50.010;8.260;2023-02-14T11:37:31;102395.03;;;4.18;76.38
26657;BME280;14279;50.010;8.260;2023-02-14T11:40:00;102399.22;;;4.12;76.34
26657;BME280;14279;50.010;8.260;2023-02-14T11:42:44;102397.56;;;4.15;76.49
26657;BME280;14279;50.010;8.260;2023-02-14T11:50:35;102385.75;;;4.31;76.37
26657;BME280;14279;50.010;8.260;2023-02-14T11:53:03;102391.72;;;4.29;76.47
26657;BME280;14279;50.010;8.260;2023-02-14T11:55:32;102388.91;;;4.12;76.54
26657;BME280;14279;50.010;8.260;2023-02-14T11:58:02;102389.09;;;4.24;76.84
26657;BME280;14279;50.010;8.260;2023-02-14T12:00:31;102385.72;;;4.28;76.90
26657;BME280;14279;50.010;8.260;2023-02-14T12:02:58;102381.53;;;4.38;76.41
26657;BME280;14279;50.010;8.260;2023-02-14T12:05:42;102382.13;;;4.17;77.22
26657;BME280;14279;50.010;8.260;2023-02-14T12:08:09;102372.31;;;3.89;78.64
26657;BME280;14279;50.010;8.260;2023-02-14T12:10:35;102376.06;;;4.13;77.70
26657;BME280;14279;50.010;8.260;2023-02-14T12:23:47;102358.66;;;4.68;75.64
26657;BME280;14279;50.010;8.260;2023-02-14T12:26:38;102353.44;;;4.64;75.66
26657;BME280;14279;50.010;8.260;2023-02-14T12:29:17;102356.84;;;4.59;75.90
26657;BME280;14279;50.010;8.260;2023-02-14T12:31:45;102348.19;;;4.54;76.02
26657;BME280;14279;50.010;8.260;2023-02-14T12:34:12;102336.00;;;4.42;76.06
26657;BME280;14279;50.010;8.260;2023-02-14T12:39:35;102340.34;;;4.44;76.70
26657;BME280;14279;50.010;8.260;2023-02-14T12:45:16;102335.06;;;4.35;76.57
26657;BME280;14279;50.010;8.260;2023-02-14T12:56:20;102324.13;;;4.53;77.08
26657;BME280;14279;50.010;8.260;2023-02-14T12:59:27;102323.16;;;4.46;76.95
26657;BME280;14279;50.010;8.260;2023-02-14T13:02:03;102316.13;;;4.31;77.65
26657;BME280;14279;50.010;8.260;2023-02-14T13:08:03;102318.69;;;4.28;78.07
26657;BME280;14279;50.010;8.260;2023-02-14T13:10:45;102311.22;;;4.53;77.48
26657;BME280;14279;50.010;8.260;2023-02-14T13:13:22;102304.25;;;4.47;77.40
26657;BME280;14279;50.010;8.260;2023-02-14T13:15:58;102296.50;;;4.44;77.38
26657;BME280;14279;50.010;8.260;2023-02-14T13:18:51;102298.38;;;4.62;76.81
26657;BME280;14279;50.010;8.260;2023-02-14T13:21:22;102295.56;;;4.36;77.46
26657;BME280;14279;50.010;8.260;2023-02-14T13:23:50;102300.66;;;4.31;77.23
26657;BME280;14279;50.010;8.260;2023-02-14T13:26:47;102298.94;;;4.30;77.46
26657;BME280;14279;50.010;8.260;2023-02-14T13:29:17;102297.97;;;4.22;77.80
26657;BME280;14279;50.010;8.260;2023-02-14T13:31:44;102293.78;;;4.30;77.84
26657;BME280;14279;50.010;8.260;2023-02-14T13:34:25;102282.97;;;4.70;77.03
26657;BME280;14279;50.010;8.260;2023-02-14T13:36:54;102277.88;;;4.76;76.33
26657;BME280;14279;50.010;8.260;2023-02-14T13:39:41;102279.00;;;5.05;75.26
26657;BME280;14279;50.010;8.260;2023-02-14T13:42:09;102280.69;;;5.03;75.05
26657;BME280;14279;50.010;8.260;2023-02-14T13:47:14;102278.75;;;4.77;75.89
26657;BME280;14279;50.010;8.260;2023-02-14T13:49:46;102272.47;;;4.48;77.12
26657;BME280;14279;50.010;8.260;2023-02-14T13:52:12;102273.44;;;4.60;77.09
26657;BME280;14279;50.010;8.260;2023-02-14T13:54:42;102268.28;;;4.60;77.30
26657;BME280;14279;50.010;8.260;2023-02-14T13:57:26;102265.81;;;4.72;76.89
26657;BME280;14279;50.010;8.260;2023-02-14T14:10:47;102264.81;;;4.59;77.23
26657;BME280;14279;50.010;8.260;2023-02-14T14:19:33;102265.03;;;4.81;76.91
26657;BME280;14279;50.010;8.260;2023-02-14T14:21:36;102258.28;;;5.00;76.33
26657;BME280;14279;50.010;8.260;2023-02-14T14:24:22;102254.97;;;5.15;75.62
26657;BME280;14279;50.010;8.260;2023-02-14T14:26:56;102254.19;;;5.25;75.44
26657;BME280;14279;50.010;8.260;2023-02-14T14:29:31;102255.53;;;4.77;76.27
26657;BME280;14279;50.010;8.260;2023-02-14T14:32:16;102248.78;;;4.93;76.29
26657;BME280;14279;50.010;8.260;2023-02-14T14:34:51;102251.47;;;5.08;75.46
26657;BME280;14279;50.010;8.260;2023-02-14T14:37:20;102249.81;;;5.14;75.35
26657;BME280;14279;50.010;8.260;2023-02-14T14:39:54;102249.81;;;5.14;74.89
26657;BME280;14279;50.010;8.260;2023-02-14T14:42:22;102242.13;;;5.29;75.09
26657;BME280;14279;50.010;8.260;2023-02-14T14:44:54;102238.72;;;5.29;74.08
26657;BME280;14279;50.010;8.260;2023-02-14T14:47:23;102237.84;;;5.28;74.09
26657;BME280;14279;50.010;8.260;2023-02-14T14:49:51;102230.88;;;5.21;74.57
26657;BME280;14279;50.010;8.260;2023-02-14T14:52:26;102230.88;;;5.18;75.03
26657;BME280;14279;50.010;8.260;2023-02-14T14:54:53;102224.88;;;5.22;74.76
26657;BME280;14279;50.010;8.260;2023-02-14T14:57:19;102223.94;;;5.12;75.17